sensor_id;sensor_type;location;lat;lon;timestamp;P1;durP1;ratioP1;P2;durP2;ratioP2
54201;SDS011;40108;53.152;5.844;2023-02-13T00:00:46;39.67;;;25.65;;
54201;SDS011;40108;53.152;5.844;2023-02-13T00:03:12;38.50;;;25.27;;
54201;SDS011;40108;53.152;5.844;2023-02-13T00:05:38;34.50;;;24.30;;
54201;SDS011;40108;53.152;5.844;2023-02-13T00:08:04;35.35;;;24.35;;
54201;SDS011;40108;53.152;5.844;2023-02-13T00:10:34;36.60;;;24.50;;
54201;SDS011;40108;53.152;5.844;2023-02-13T00:13:03;35.08;;;24.17;;
54201;SDS011;40108;53.152;5.844;2023-02-13T00:15:32;36.33;;;24.33;;
54201;SDS011;40108;53.152;5.844;2023-02-13T00:17:58;35.78;;;23.50;;
54201;SDS011;40108;53.152;5.844;2023-02-13T00:20:24;39.72;;;25.33;;
54201;SDS011;40108;53.152;5.844;2023-02-13T00:22:52;34.30;;;23.33;;
54201;SDS011;40108;53.152;5.844;2023-02-13T00:25:21;35.90;;;22.85;;
54201;SDS011;40108;53.152;5.844;2023-02-13T00:27:48;34.60;;;22.95;;
54201;SDS011;40108;53.152;5.844;2023-02-13T00:30:15;37.08;;;24.02;;
54201;SDS011;40108;53.152;5.844;2023-02-13T00:32:41;34.88;;;24.27;;
54201;SDS011;40108;53.152;5.844;2023-02-13T00:35:07;37.15;;;24.17;;
54201;SDS011;40108;53.152;5.844;2023-02-13T00:37:37;39.22;;;24.77;;
54201;SDS011;40108;53.152;5.844;2023-02-13T00:40:06;35.03;;;24.20;;
54201;SDS011;40108;53.152;5.844;2023-02-13T00:42:35;37.35;;;24.17;;
54201;SDS011;40108;53.152;5.844;2023-02-13T00:45:03;36.15;;;24.55;;
54201;SDS011;40108;53.152;5.844;2023-02-13T00:47:29;35.15;;;23.02;;
54201;SDS011;40108;53.152;5.844;2023-02-13T00:49:57;37.58;;;25.23;;
54201;SDS011;40108;53.152;5.844;2023-02-13T00:52:27;35.00;;;24.35;;
54201;SDS011;40108;53.152;5.844;2023-02-13T00:54:56;37.75;;;24.60;;
54201;SDS011;40108;53.152;5.844;2023-02-13T00:57:22;35.75;;;24.27;;
54201;SDS011;40108;53.152;5.844;2023-02-13T00:59:50;36.95;;;25.17;;
54201;SDS011;40108;53.152;5.844;2023-02-13T01:02:16;35.65;;;24.95;;
54201;SDS011;40108;53.152;5.844;2023-02-13T01:04:42;38.03;;;24.85;;
54201;SDS011;40108;53.152;5.844;2023-02-13T01:07:10;36.67;;;24.35;;
54201;SDS011;40108;53.152;5.844;2023-02-13T01:09:39;38.88;;;25.20;;
54201;SDS011;40108;53.152;5.844;2023-02-13T01:12:05;35.95;;;24.77;;
54201;SDS011;40108;53.152;5.844;2023-02-13T01:14:32;36.35;;;25.15;;
54201;SDS011;40108;53.152;5.844;2023-02-13T01:17:07;38.33;;;25.40;;
54201;SDS011;40108;53.152;5.844;2023-02-13T01:19:33;39.08;;;25.08;;
54201;SDS011;40108;53.152;5.844;2023-02-13T01:21:59;34.65;;;24.98;;
54201;SDS011;40108;53.152;5.844;2023-02-13T01:24:25;38.22;;;25.10;;
54201;SDS011;40108;53.152;5.844;2023-02-13T01:26:56;39.97;;;25.52;;
54201;SDS011;40108;53.152;5.844;2023-02-13T01:29:22;37.47;;;25.50;;
54201;SDS011;40108;53.152;5.844;2023-02-13T01:31:48;34.53;;;24.10;;
54201;SDS011;40108;53.152;5.844;2023-02-13T01:34:13;36.30;;;24.50;;
54201;SDS011;40108;53.152;5.844;2023-02-13T01:36:39;38.08;;;26.02;;
54201;SDS011;40108;53.152;5.844;2023-02-13T01:39:05;35.72;;;25.10;;
54201;SDS011;40108;53.152;5.844;2023-02-13T01:41:38;36.55;;;24.65;;
54201;SDS011;40108;53.152;5.844;2023-02-13T01:47:09;33.88;;;24.25;;
54201;SDS011;40108;53.152;5.844;2023-02-13T01:49:39;34.72;;;23.13;;
54201;SDS011;40108;53.152;5.844;2023-02-13T01:52:15;36.28;;;23.55;;
54201;SDS011;40108;53.152;5.844;2023-02-13T01:54:41;33.00;;;22.48;;
54201;SDS011;40108;53.152;5.844;2023-02-13T01:57:10;35.05;;;23.38;;
54201;SDS011;40108;53.152;5.844;2023-02-13T02:02:11;35.22;;;23.80;;
54201;SDS011;40108;53.152;5.844;2023-02-13T02:04:38;35.22;;;23.33;;
54201;SDS011;40108;53.152;5.844;2023-02-13T02:07:25;37.03;;;23.58;;
54201;SDS011;40108;53.152;5.844;2023-02-13T02:09:57;38.45;;;24.23;;
54201;SDS011;40108;53.152;5.844;2023-02-13T02:14:58;36.13;;;23.80;;
54201;SDS011;40108;53.152;5.844;2023-02-13T02:17:26;33.47;;;22.75;;
54201;SDS011;40108;53.152;5.844;2023-02-13T02:25:45;60.15;;;38.75;;
54201;SDS011;40108;53.152;5.844;2023-02-13T02:31:00;44.33;;;28.42;;
54201;SDS011;40108;53.152;5.844;2023-02-13T02:33:58;39.72;;;25.35;;
54201;SDS011;40108;53.152;5.844;2023-02-13T02:39:43;38.50;;;25.33;;
54201;SDS011;40108;53.152;5.844;2023-02-13T02:45:22;39.17;;;25.02;;
54201;SDS011;40108;53.152;5.844;2023-02-13T02:51:10;38.55;;;26.58;;
54201;SDS011;40108;53.152;5.844;2023-02-13T02:53:53;37.35;;;26.00;;
54201;SDS011;40108;53.152;5.844;2023-02-13T02:56:50;40.58;;;25.98;;
54201;SDS011;40108;53.152;5.844;2023-02-13T02:59:18;37.97;;;25.58;;
54201;SDS011;40108;53.152;5.844;2023-02-13T03:02:05;37.95;;;25.48;;
54201;SDS011;40108;53.152;5.844;2023-02-13T03:04:52;39.50;;;25.98;;
54201;SDS011;40108;53.152;5.844;2023-02-13T03:07:41;42.63;;;25.58;;
54201;SDS011;40108;53.152;5.844;2023-02-13T03:10:20;38.28;;;26.23;;
54201;SDS011;40108;53.152;5.844;2023-02-13T03:13:13;35.80;;;23.42;;
54201;SDS011;40108;53.152;5.844;2023-02-13T03:16:00;40.75;;;25.60;;
54201;SDS011;40108;53.152;5.844;2023-02-13T03:18:54;37.80;;;25.77;;
54201;SDS011;40108;53.152;5.844;2023-02-13T03:21:58;37.53;;;24.25;;
54201;SDS011;40108;53.152;5.844;2023-02-13T03:42:34;39.75;;;25.00;;
54201;SDS011;40108;53.152;5.844;2023-02-13T03:45:02;40.08;;;26.10;;
54201;SDS011;40108;53.152;5.844;2023-02-13T03:48:02;38.00;;;25.00;;
54201;SDS011;40108;53.152;5.844;2023-02-13T03:50:35;41.95;;;24.88;;
54201;SDS011;40108;53.152;5.844;2023-02-13T03:53:06;38.83;;;26.05;;
54201;SDS011;40108;53.152;5.844;2023-02-13T03:55:39;37.88;;;24.40;;
54201;SDS011;40108;53.152;5.844;2023-02-13T03:58:30;38.28;;;24.55;;
54201;SDS011;40108;53.152;5.844;2023-02-13T04:01:24;39.05;;;25.33;;
54201;SDS011;40108;53.152;5.844;2023-02-13T04:04:10;37.85;;;24.70;;
54201;SDS011;40108;53.152;5.844;2023-02-13T04:06:43;38.45;;;25.13;;
54201;SDS011;40108;53.152;5.844;2023-02-13T04:16:50;39.78;;;25.02;;
54201;SDS011;40108;53.152;5.844;2023-02-13T04:19:20;40.03;;;25.08;;
54201;SDS011;40108;53.152;5.844;2023-02-13T04:21:48;39.33;;;25.30;;
54201;SDS011;40108;53.152;5.844;2023-02-13T04:24:20;37.65;;;25.40;;
54201;SDS011;40108;53.152;5.844;2023-02-13T04:26:47;39.42;;;25.42;;
54201;SDS011;40108;53.152;5.844;2023-02-13T04:29:16;37.97;;;24.00;;
54201;SDS011;40108;53.152;5.844;2023-02-13T04:31:44;38.15;;;24.23;;
54201;SDS011;40108;53.152;5.844;2023-02-13T04:34:10;37.67;;;24.40;;
54201;SDS011;40108;53.152;5.844;2023-02-13T04:36:36;42.88;;;26.60;;
54201;SDS011;40108;53.152;5.844;2023-02-13T04:39:08;39.83;;;25.65;;
54201;SDS011;40108;53.152;5.844;2023-02-13T04:41:37;37.53;;;25.08;;
54201;SDS011;40108;53.152;5.844;2023-02-13T04:44:06;38.42;;;24.85;;
54201;SDS011;40108;53.152;5.844;2023-02-13T04:46:34;39.67;;;25.13;;
54201;SDS011;40108;53.152;5.844;2023-02-13T04:49:00;41.42;;;25.23;;
54201;SDS011;40108;53.152;5.844;2023-02-13T04:51:26;40.92;;;25.90;;
54201;SDS011;40108;53.152;5.844;2023-02-13T04:53:52;43.20;;;25.98;;
54201;SDS011;40108;53.152;5.844;2023-02-13T04:56:20;40.28;;;25.52;;
54201;SDS011;40108;53.152;5.844;2023-02-13T04:58:46;39.67;;;25.77;;
54201;SDS011;40108;53.152;5.844;2023-02-13T05:01:12;40.92;;;25.45;;
54201;SDS011;40108;53.152;5.844;2023-02-13T05:03:39;39.10;;;25.55;;
54201;SDS011;40108;53.152;5.844;2023-02-13T05:06:11;41.90;;;25.48;;
54201;SDS011;40108;53.152;5.844;2023-02-13T05:08:36;41.70;;;25.48;;
54201;SDS011;40108;53.152;5.844;2023-02-13T05:11:02;43.88;;;26.05;;
54201;SDS011;40108;53.152;5.844;2023-02-13T05:13:28;40.78;;;25.08;;
54201;SDS011;40108;53.152;5.844;2023-02-13T05:16:02;41.80;;;24.58;;
54201;SDS011;40108;53.152;5.844;2023-02-13T05:18:27;40.25;;;25.90;;
54201;SDS011;40108;53.152;5.844;2023-02-13T05:20:56;42.53;;;25.50;;
54201;SDS011;40108;53.152;5.844;2023-02-13T05:23:40;39.50;;;25.50;;
54201;SDS011;40108;53.152;5.844;2023-02-13T05:26:06;40.30;;;24.35;;
54201;SDS011;40108;53.152;5.844;2023-02-13T05:28:34;39.03;;;25.42;;
54201;SDS011;40108;53.152;5.844;2023-02-13T05:31:18;42.83;;;25.15;;
54201;SDS011;40108;53.152;5.844;2023-02-13T05:33:44;41.38;;;26.20;;
54201;SDS011;40108;53.152;5.844;2023-02-13T05:36:12;46.65;;;27.38;;
54201;SDS011;40108;53.152;5.844;2023-02-13T05:38:41;42.88;;;26.38;;
54201;SDS011;40108;53.152;5.844;2023-02-13T05:41:07;38.15;;;24.40;;
54201;SDS011;40108;53.152;5.844;2023-02-13T05:43:33;42.47;;;25.85;;
54201;SDS011;40108;53.152;5.844;2023-02-13T05:46:06;40.22;;;25.13;;
54201;SDS011;40108;53.152;5.844;2023-02-13T05:48:37;41.60;;;25.98;;
54201;SDS011;40108;53.152;5.844;2023-02-13T05:51:03;39.92;;;26.23;;
54201;SDS011;40108;53.152;5.844;2023-02-13T05:53:35;44.40;;;26.55;;
54201;SDS011;40108;53.152;5.844;2023-02-13T05:56:04;38.75;;;24.33;;
54201;SDS011;40108;53.152;5.844;2023-02-13T05:58:38;43.65;;;25.25;;
54201;SDS011;40108;53.152;5.844;2023-02-13T06:01:06;41.20;;;25.73;;
54201;SDS011;40108;53.152;5.844;2023-02-13T06:03:33;42.63;;;26.58;;
54201;SDS011;40108;53.152;5.844;2023-02-13T06:05:59;41.17;;;26.00;;
54201;SDS011;40108;53.152;5.844;2023-02-13T06:08:30;43.33;;;26.33;;
54201;SDS011;40108;53.152;5.844;2023-02-13T06:10:59;52.15;;;30.08;;
54201;SDS011;40108;53.152;5.844;2023-02-13T06:13:28;46.53;;;28.30;;
54201;SDS011;40108;53.152;5.844;2023-02-13T06:15:55;44.25;;;27.15;;
54201;SDS011;40108;53.152;5.844;2023-02-13T06:18:25;49.42;;;28.95;;
54201;SDS011;40108;53.152;5.844;2023-02-13T06:20:54;48.13;;;27.73;;
54201;SDS011;40108;53.152;5.844;2023-02-13T06:23:29;43.60;;;27.48;;
54201;SDS011;40108;53.152;5.844;2023-02-13T06:26:01;46.38;;;27.13;;
54201;SDS011;40108;53.152;5.844;2023-02-13T06:28:28;44.75;;;27.33;;
54201;SDS011;40108;53.152;5.844;2023-02-13T06:30:56;47.83;;;27.80;;
54201;SDS011;40108;53.152;5.844;2023-02-13T06:33:22;47.05;;;26.92;;
54201;SDS011;40108;53.152;5.844;2023-02-13T06:35:51;44.65;;;27.58;;
54201;SDS011;40108;53.152;5.844;2023-02-13T06:38:20;47.42;;;28.17;;
54201;SDS011;40108;53.152;5.844;2023-02-13T06:41:02;47.55;;;27.73;;
54201;SDS011;40108;53.152;5.844;2023-02-13T06:43:36;45.85;;;27.48;;
54201;SDS011;40108;53.152;5.844;2023-02-13T06:46:06;47.13;;;27.65;;
54201;SDS011;40108;53.152;5.844;2023-02-13T06:48:33;51.50;;;30.13;;
54201;SDS011;40108;53.152;5.844;2023-02-13T06:51:04;44.13;;;27.60;;
54201;SDS011;40108;53.152;5.844;2023-02-13T06:53:30;47.40;;;27.38;;
54201;SDS011;40108;53.152;5.844;2023-02-13T06:56:01;44.95;;;27.35;;
54201;SDS011;40108;53.152;5.844;2023-02-13T06:58:59;44.90;;;26.67;;
54201;SDS011;40108;53.152;5.844;2023-02-13T07:01:39;51.00;;;28.88;;
54201;SDS011;40108;53.152;5.844;2023-02-13T07:04:05;47.58;;;28.52;;
54201;SDS011;40108;53.152;5.844;2023-02-13T07:06:36;51.13;;;31.70;;
54201;SDS011;40108;53.152;5.844;2023-02-13T08:06:47;51.13;;;28.00;;
54201;SDS011;40108;53.152;5.844;2023-02-13T08:46:24;47.15;;;28.50;;
54201;SDS011;40108;53.152;5.844;2023-02-13T08:48:50;51.83;;;28.17;;
54201;SDS011;40108;53.152;5.844;2023-02-13T08:51:16;49.20;;;27.48;;
54201;SDS011;40108;53.152;5.844;2023-02-13T08:53:42;47.63;;;28.80;;
54201;SDS011;40108;53.152;5.844;2023-02-13T08:56:08;47.38;;;26.95;;
54201;SDS011;40108;53.152;5.844;2023-02-13T08:58:41;45.60;;;27.10;;
54201;SDS011;40108;53.152;5.844;2023-02-13T09:01:07;48.13;;;27.25;;
54201;SDS011;40108;53.152;5.844;2023-02-13T09:03:45;48.55;;;26.88;;
54201;SDS011;40108;53.152;5.844;2023-02-13T09:06:13;46.80;;;28.25;;
54201;SDS011;40108;53.152;5.844;2023-02-13T09:08:39;50.47;;;29.83;;
54201;SDS011;40108;53.152;5.844;2023-02-13T09:11:05;49.78;;;29.50;;
54201;SDS011;40108;53.152;5.844;2023-02-13T09:13:34;52.65;;;28.83;;
54201;SDS011;40108;53.152;5.844;2023-02-13T09:16:02;49.92;;;29.75;;
54201;SDS011;40108;53.152;5.844;2023-02-13T09:18:29;49.42;;;28.45;;
54201;SDS011;40108;53.152;5.844;2023-02-13T09:23:32;49.30;;;27.80;;
54201;SDS011;40108;53.152;5.844;2023-02-13T09:25:59;48.40;;;28.25;;
54201;SDS011;40108;53.152;5.844;2023-02-13T09:28:26;47.95;;;27.55;;
54201;SDS011;40108;53.152;5.844;2023-02-13T09:30:53;52.60;;;29.92;;
54201;SDS011;40108;53.152;5.844;2023-02-13T09:33:19;48.58;;;28.50;;
54201;SDS011;40108;53.152;5.844;2023-02-13T09:35:45;49.65;;;28.35;;
54201;SDS011;40108;53.152;5.844;2023-02-13T09:38:14;52.38;;;27.52;;
54201;SDS011;40108;53.152;5.844;2023-02-13T09:40:50;45.60;;;26.65;;
54201;SDS011;40108;53.152;5.844;2023-02-13T09:45:55;44.10;;;25.33;;
54201;SDS011;40108;53.152;5.844;2023-02-13T09:48:30;46.45;;;27.02;;
54201;SDS011;40108;53.152;5.844;2023-02-13T09:50:58;44.78;;;26.48;;
54201;SDS011;40108;53.152;5.844;2023-02-13T09:53:25;44.70;;;25.95;;
54201;SDS011;40108;53.152;5.844;2023-02-13T09:56:03;48.50;;;27.67;;
54201;SDS011;40108;53.152;5.844;2023-02-13T09:58:48;48.33;;;26.73;;
54201;SDS011;40108;53.152;5.844;2023-02-13T10:01:42;48.50;;;26.50;;
54201;SDS011;40108;53.152;5.844;2023-02-13T10:04:14;47.28;;;26.58;;
54201;SDS011;40108;53.152;5.844;2023-02-13T10:07:16;47.28;;;26.73;;
54201;SDS011;40108;53.152;5.844;2023-02-13T10:10:34;48.45;;;26.15;;
54201;SDS011;40108;53.152;5.844;2023-02-13T10:18:04;48.92;;;26.67;;
54201;SDS011;40108;53.152;5.844;2023-02-13T10:20:46;48.17;;;26.42;;
54201;SDS011;40108;53.152;5.844;2023-02-13T10:23:24;46.22;;;25.60;;
54201;SDS011;40108;53.152;5.844;2023-02-13T10:26:33;44.67;;;25.08;;
54201;SDS011;40108;53.152;5.844;2023-02-13T10:29:09;46.50;;;25.30;;
54201;SDS011;40108;53.152;5.844;2023-02-13T10:31:58;48.00;;;25.23;;
54201;SDS011;40108;53.152;5.844;2023-02-13T10:34:33;45.22;;;24.38;;
54201;SDS011;40108;53.152;5.844;2023-02-13T10:37:07;45.50;;;24.05;;
54201;SDS011;40108;53.152;5.844;2023-02-13T10:39:40;48.47;;;23.45;;
54201;SDS011;40108;53.152;5.844;2023-02-13T10:44:50;44.22;;;23.05;;
54201;SDS011;40108;53.152;5.844;2023-02-13T11:03:46;41.95;;;23.85;;
54201;SDS011;40108;53.152;5.844;2023-02-13T11:06:26;48.25;;;26.45;;
54201;SDS011;40108;53.152;5.844;2023-02-13T11:08:54;39.10;;;23.27;;
54201;SDS011;40108;53.152;5.844;2023-02-13T11:11:31;39.97;;;24.02;;
54201;SDS011;40108;53.152;5.844;2023-02-13T11:16:43;42.67;;;24.23;;
54201;SDS011;40108;53.152;5.844;2023-02-13T11:19:25;41.05;;;24.15;;
54201;SDS011;40108;53.152;5.844;2023-02-13T11:22:03;40.63;;;24.42;;
54201;SDS011;40108;53.152;5.844;2023-02-13T11:24:34;43.00;;;25.17;;
54201;SDS011;40108;53.152;5.844;2023-02-13T11:27:02;40.92;;;23.85;;
54201;SDS011;40108;53.152;5.844;2023-02-13T11:29:49;40.65;;;23.02;;
54201;SDS011;40108;53.152;5.844;2023-02-13T11:32:23;42.65;;;24.63;;
54201;SDS011;40108;53.152;5.844;2023-02-13T11:34:51;44.28;;;24.67;;
54201;SDS011;40108;53.152;5.844;2023-02-13T11:37:24;41.97;;;23.90;;
54201;SDS011;40108;53.152;5.844;2023-02-13T11:39:53;46.47;;;25.35;;
54201;SDS011;40108;53.152;5.844;2023-02-13T11:45:04;36.13;;;22.17;;
54201;SDS011;40108;53.152;5.844;2023-02-13T11:47:44;41.55;;;25.15;;
54201;SDS011;40108;53.152;5.844;2023-02-13T11:50:31;42.28;;;24.33;;
54201;SDS011;40108;53.152;5.844;2023-02-13T11:53:13;42.97;;;24.00;;
54201;SDS011;40108;53.152;5.844;2023-02-13T11:58:44;41.20;;;23.98;;
54201;SDS011;40108;53.152;5.844;2023-02-13T12:01:22;37.70;;;22.83;;
54201;SDS011;40108;53.152;5.844;2023-02-13T12:04:01;40.92;;;23.27;;
54201;SDS011;40108;53.152;5.844;2023-02-13T12:06:38;37.72;;;22.73;;
54201;SDS011;40108;53.152;5.844;2023-02-13T12:09:14;39.55;;;23.13;;
54201;SDS011;40108;53.152;5.844;2023-02-13T12:14:26;43.00;;;22.83;;
54201;SDS011;40108;53.152;5.844;2023-02-13T12:17:07;41.45;;;23.77;;
54201;SDS011;40108;53.152;5.844;2023-02-13T12:19:44;39.85;;;23.38;;
54201;SDS011;40108;53.152;5.844;2023-02-13T12:24:50;37.15;;;23.00;;
54201;SDS011;40108;53.152;5.844;2023-02-13T12:39:17;40.75;;;22.95;;
54201;SDS011;40108;53.152;5.844;2023-02-13T12:47:44;38.72;;;22.77;;
54201;SDS011;40108;53.152;5.844;2023-02-13T13:01:02;44.67;;;23.20;;
54201;SDS011;40108;53.152;5.844;2023-02-13T13:12:09;41.80;;;23.35;;
54201;SDS011;40108;53.152;5.844;2023-02-13T13:17:39;40.30;;;22.65;;
54201;SDS011;40108;53.152;5.844;2023-02-13T13:20:36;38.70;;;23.10;;
54201;SDS011;40108;53.152;5.844;2023-02-13T13:23:11;39.10;;;23.40;;
54201;SDS011;40108;53.152;5.844;2023-02-13T13:25:51;38.13;;;22.40;;
54201;SDS011;40108;53.152;5.844;2023-02-13T13:28:23;40.35;;;23.30;;
54201;SDS011;40108;53.152;5.844;2023-02-13T13:31:09;38.13;;;21.58;;
54201;SDS011;40108;53.152;5.844;2023-02-13T13:33:41;38.53;;;23.00;;
54201;SDS011;40108;53.152;5.844;2023-02-13T13:36:16;38.60;;;22.77;;
54201;SDS011;40108;53.152;5.844;2023-02-13T13:47:23;36.38;;;22.02;;
54201;SDS011;40108;53.152;5.844;2023-02-13T13:50:34;39.22;;;23.20;;
54201;SDS011;40108;53.152;5.844;2023-02-13T13:58:23;37.28;;;23.40;;
54201;SDS011;40108;53.152;5.844;2023-02-13T14:03:44;39.25;;;24.08;;
54201;SDS011;40108;53.152;5.844;2023-02-13T14:06:15;39.13;;;24.40;;
54201;SDS011;40108;53.152;5.844;2023-02-13T14:11:33;41.53;;;24.60;;
54201;SDS011;40108;53.152;5.844;2023-02-13T14:14:00;39.95;;;24.08;;
54201;SDS011;40108;53.152;5.844;2023-02-13T14:16:49;41.65;;;25.65;;
54201;SDS011;40108;53.152;5.844;2023-02-13T14:19:25;40.25;;;23.48;;
54201;SDS011;40108;53.152;5.844;2023-02-13T14:25:02;40.22;;;24.90;;
54201;SDS011;40108;53.152;5.844;2023-02-13T14:27:31;37.83;;;26.83;;
54201;SDS011;40108;53.152;5.844;2023-02-13T14:29:59;42.58;;;27.63;;
54201;SDS011;40108;53.152;5.844;2023-02-13T14:32:35;42.80;;;27.83;;
54201;SDS011;40108;53.152;5.844;2023-02-13T14:35:14;42.15;;;27.27;;
54201;SDS011;40108;53.152;5.844;2023-02-13T14:37:51;37.78;;;26.55;;
54201;SDS011;40108;53.152;5.844;2023-02-13T14:45:50;41.58;;;26.25;;
54201;SDS011;40108;53.152;5.844;2023-02-13T14:56:58;41.88;;;30.85;;
54201;SDS011;40108;53.152;5.844;2023-02-13T14:59:50;42.03;;;30.65;;
54201;SDS011;40108;53.152;5.844;2023-02-13T15:02:25;44.83;;;33.63;;
54201;SDS011;40108;53.152;5.844;2023-02-13T15:05:14;40.17;;;30.13;;
54201;SDS011;40108;53.152;5.844;2023-02-13T15:11:08;42.63;;;29.83;;
54201;SDS011;40108;53.152;5.844;2023-02-13T15:16:33;41.25;;;29.15;;
54201;SDS011;40108;53.152;5.844;2023-02-13T15:19:19;45.10;;;30.83;;
54201;SDS011;40108;53.152;5.844;2023-02-13T15:24:23;40.85;;;29.05;;
54201;SDS011;40108;53.152;5.844;2023-02-13T15:27:24;53.95;;;35.63;;
54201;SDS011;40108;53.152;5.844;2023-02-13T15:33:31;42.80;;;30.02;;
54201;SDS011;40108;53.152;5.844;2023-02-13T15:39:30;42.75;;;30.77;;
54201;SDS011;40108;53.152;5.844;2023-02-13T15:42:00;53.85;;;38.55;;
54201;SDS011;40108;53.152;5.844;2023-02-13T15:44:42;48.05;;;33.53;;
54201;SDS011;40108;53.152;5.844;2023-02-13T15:47:22;43.75;;;31.35;;
54201;SDS011;40108;53.152;5.844;2023-02-13T15:49:52;41.70;;;30.63;;
54201;SDS011;40108;53.152;5.844;2023-02-13T15:52:25;43.40;;;31.58;;
54201;SDS011;40108;53.152;5.844;2023-02-13T15:55:00;46.50;;;32.85;;
54201;SDS011;40108;53.152;5.844;2023-02-13T15:57:36;42.70;;;30.90;;
54201;SDS011;40108;53.152;5.844;2023-02-13T16:00:08;42.22;;;31.75;;
54201;SDS011;40108;53.152;5.844;2023-02-13T16:02:47;50.35;;;33.40;;
54201;SDS011;40108;53.152;5.844;2023-02-13T16:05:25;47.47;;;34.15;;
54201;SDS011;40108;53.152;5.844;2023-02-13T16:08:19;46.13;;;33.25;;
54201;SDS011;40108;53.152;5.844;2023-02-13T16:11:19;44.35;;;32.70;;
54201;SDS011;40108;53.152;5.844;2023-02-13T16:14:05;44.45;;;31.75;;
54201;SDS011;40108;53.152;5.844;2023-02-13T16:20:07;49.45;;;34.00;;
54201;SDS011;40108;53.152;5.844;2023-02-13T16:22:54;51.13;;;36.10;;
54201;SDS011;40108;53.152;5.844;2023-02-13T16:25:35;50.25;;;35.17;;
54201;SDS011;40108;53.152;5.844;2023-02-13T16:30:44;51.83;;;35.65;;
54201;SDS011;40108;53.152;5.844;2023-02-13T16:33:18;48.90;;;34.67;;
54201;SDS011;40108;53.152;5.844;2023-02-13T16:39:25;50.35;;;34.70;;
54201;SDS011;40108;53.152;5.844;2023-02-13T16:42:20;47.30;;;35.33;;
54201;SDS011;40108;53.152;5.844;2023-02-13T16:48:13;53.80;;;37.75;;
54201;SDS011;40108;53.152;5.844;2023-02-13T16:50:41;57.58;;;39.72;;
54201;SDS011;40108;53.152;5.844;2023-02-13T16:53:21;57.92;;;40.88;;
54201;SDS011;40108;53.152;5.844;2023-02-13T16:55:55;61.15;;;42.33;;
54201;SDS011;40108;53.152;5.844;2023-02-13T16:58:43;64.72;;;45.70;;
54201;SDS011;40108;53.152;5.844;2023-02-13T17:01:12;60.40;;;42.78;;
54201;SDS011;40108;53.152;5.844;2023-02-13T17:03:42;60.67;;;43.08;;
54201;SDS011;40108;53.152;5.844;2023-02-13T17:06:10;62.78;;;42.20;;
54201;SDS011;40108;53.152;5.844;2023-02-13T17:08:38;54.03;;;38.20;;
54201;SDS011;40108;53.152;5.844;2023-02-13T17:11:06;54.28;;;39.42;;
54201;SDS011;40108;53.152;5.844;2023-02-13T17:13:32;58.80;;;39.10;;
54201;SDS011;40108;53.152;5.844;2023-02-13T17:15:58;55.25;;;39.80;;
54201;SDS011;40108;53.152;5.844;2023-02-13T17:18:25;54.28;;;38.70;;
54201;SDS011;40108;53.152;5.844;2023-02-13T17:20:51;55.63;;;39.25;;
54201;SDS011;40108;53.152;5.844;2023-02-13T17:23:22;57.10;;;38.67;;
54201;SDS011;40108;53.152;5.844;2023-02-13T17:25:49;61.63;;;42.03;;
54201;SDS011;40108;53.152;5.844;2023-02-13T17:28:25;57.45;;;41.22;;
54201;SDS011;40108;53.152;5.844;2023-02-13T17:30:54;59.47;;;40.63;;
54201;SDS011;40108;53.152;5.844;2023-02-13T17:33:28;60.28;;;42.28;;
54201;SDS011;40108;53.152;5.844;2023-02-13T17:35:55;56.85;;;39.35;;
54201;SDS011;40108;53.152;5.844;2023-02-13T17:38:21;56.78;;;39.90;;
54201;SDS011;40108;53.152;5.844;2023-02-13T17:40:48;53.83;;;38.35;;
54201;SDS011;40108;53.152;5.844;2023-02-13T17:43:17;55.65;;;37.38;;
54201;SDS011;40108;53.152;5.844;2023-02-13T17:45:47;55.95;;;38.00;;
54201;SDS011;40108;53.152;5.844;2023-02-13T17:48:13;55.35;;;37.55;;
54201;SDS011;40108;53.152;5.844;2023-02-13T17:50:42;55.42;;;37.40;;
54201;SDS011;40108;53.152;5.844;2023-02-13T17:53:15;62.17;;;39.83;;
54201;SDS011;40108;53.152;5.844;2023-02-13T17:55:51;57.35;;;39.08;;
54201;SDS011;40108;53.152;5.844;2023-02-13T17:58:17;57.55;;;39.33;;
54201;SDS011;40108;53.152;5.844;2023-02-13T18:00:43;58.08;;;40.40;;
54201;SDS011;40108;53.152;5.844;2023-02-13T18:03:11;57.78;;;40.17;;
54201;SDS011;40108;53.152;5.844;2023-02-13T18:05:39;54.22;;;37.17;;
54201;SDS011;40108;53.152;5.844;2023-02-13T18:08:05;54.72;;;36.63;;
54201;SDS011;40108;53.152;5.844;2023-02-13T18:10:32;63.13;;;38.80;;
54201;SDS011;40108;53.152;5.844;2023-02-13T18:13:03;60.60;;;41.65;;
54201;SDS011;40108;53.152;5.844;2023-02-13T18:15:33;65.10;;;43.00;;
54201;SDS011;40108;53.152;5.844;2023-02-13T18:18:02;63.03;;;41.47;;
54201;SDS011;40108;53.152;5.844;2023-02-13T18:20:28;60.50;;;38.67;;
54201;SDS011;40108;53.152;5.844;2023-02-13T18:22:54;58.67;;;39.97;;
54201;SDS011;40108;53.152;5.844;2023-02-13T18:25:20;61.78;;;40.13;;
54201;SDS011;40108;53.152;5.844;2023-02-13T18:27:47;56.97;;;39.53;;
54201;SDS011;40108;53.152;5.844;2023-02-13T18:30:14;63.08;;;40.60;;
54201;SDS011;40108;53.152;5.844;2023-02-13T18:32:42;65.13;;;44.00;;
54201;SDS011;40108;53.152;5.844;2023-02-13T18:35:08;70.22;;;47.50;;
54201;SDS011;40108;53.152;5.844;2023-02-13T18:37:35;62.28;;;41.67;;
54201;SDS011;40108;53.152;5.844;2023-02-13T18:40:05;67.03;;;44.13;;
54201;SDS011;40108;53.152;5.844;2023-02-13T18:42:34;64.22;;;42.58;;
54201;SDS011;40108;53.152;5.844;2023-02-13T18:45:01;64.10;;;41.72;;
54201;SDS011;40108;53.152;5.844;2023-02-13T18:47:27;67.32;;;43.30;;
54201;SDS011;40108;53.152;5.844;2023-02-13T18:49:53;64.30;;;42.08;;
54201;SDS011;40108;53.152;5.844;2023-02-13T18:52:19;67.78;;;42.75;;
54201;SDS011;40108;53.152;5.844;2023-02-13T18:54:45;68.50;;;43.60;;
54201;SDS011;40108;53.152;5.844;2023-02-13T18:57:16;68.35;;;43.25;;
54201;SDS011;40108;53.152;5.844;2023-02-13T18:59:44;65.65;;;41.97;;
54201;SDS011;40108;53.152;5.844;2023-02-13T19:02:09;66.65;;;42.55;;
54201;SDS011;40108;53.152;5.844;2023-02-13T19:04:43;64.82;;;42.05;;
54201;SDS011;40108;53.152;5.844;2023-02-13T19:07:08;67.13;;;41.05;;
54201;SDS011;40108;53.152;5.844;2023-02-13T19:09:36;67.68;;;43.47;;
54201;SDS011;40108;53.152;5.844;2023-02-13T19:12:04;63.15;;;40.55;;
54201;SDS011;40108;53.152;5.844;2023-02-13T19:14:31;73.63;;;46.28;;
54201;SDS011;40108;53.152;5.844;2023-02-13T19:16:59;79.85;;;49.65;;
54201;SDS011;40108;53.152;5.844;2023-02-13T19:19:27;63.35;;;41.45;;
54201;SDS011;40108;53.152;5.844;2023-02-13T19:21:53;63.80;;;40.78;;
54201;SDS011;40108;53.152;5.844;2023-02-13T19:24:26;62.78;;;41.75;;
54201;SDS011;40108;53.152;5.844;2023-02-13T19:26:52;73.40;;;48.67;;
54201;SDS011;40108;53.152;5.844;2023-02-13T19:29:21;73.65;;;44.85;;
54201;SDS011;40108;53.152;5.844;2023-02-13T19:31:47;71.25;;;45.03;;
54201;SDS011;40108;53.152;5.844;2023-02-13T19:34:15;74.28;;;46.97;;
54201;SDS011;40108;53.152;5.844;2023-02-13T19:36:41;78.30;;;50.40;;
54201;SDS011;40108;53.152;5.844;2023-02-13T19:39:09;74.05;;;48.08;;
54201;SDS011;40108;53.152;5.844;2023-02-13T19:41:35;74.55;;;47.08;;
54201;SDS011;40108;53.152;5.844;2023-02-13T19:44:06;70.30;;;45.28;;
54201;SDS011;40108;53.152;5.844;2023-02-13T19:46:36;65.88;;;42.30;;